sensor_id;sensor_type;location;lat;lon;timestamp;P1;durP1;ratioP1;P2;durP2;ratioP2
10050;SDS011;5065;46.942;7.432;2023-02-24T00:01:31;18.90;;;13.73;;
10050;SDS011;5065;46.942;7.432;2023-02-24T00:04:02;21.02;;;13.73;;
10050;SDS011;5065;46.942;7.432;2023-02-24T00:06:32;17.55;;;13.32;;
10050;SDS011;5065;46.942;7.432;2023-02-24T00:09:01;20.92;;;14.23;;
10050;SDS011;5065;46.942;7.432;2023-02-24T00:11:34;19.75;;;13.07;;
10050;SDS011;5065;46.942;7.432;2023-02-24T00:14:03;18.65;;;13.02;;
10050;SDS011;5065;46.942;7.432;2023-02-24T00:16:31;24.50;;;12.57;;
10050;SDS011;5065;46.942;7.432;2023-02-24T00:18:59;19.52;;;12.82;;
10050;SDS011;5065;46.942;7.432;2023-02-24T00:21:27;19.75;;;13.05;;
10050;SDS011;5065;46.942;7.432;2023-02-24T00:23:55;17.77;;;12.95;;
10050;SDS011;5065;46.942;7.432;2023-02-24T00:26:24;18.93;;;13.40;;
10050;SDS011;5065;46.942;7.432;2023-02-24T00:28:55;21.25;;;13.30;;
10050;SDS011;5065;46.942;7.432;2023-02-24T00:31:25;19.37;;;12.83;;
10050;SDS011;5065;46.942;7.432;2023-02-24T00:33:55;19.87;;;12.90;;
10050;SDS011;5065;46.942;7.432;2023-02-24T00:36:23;18.40;;;13.20;;
10050;SDS011;5065;46.942;7.432;2023-02-24T00:38:51;19.70;;;13.00;;
10050;SDS011;5065;46.942;7.432;2023-02-24T00:41:22;17.13;;;12.43;;
10050;SDS011;5065;46.942;7.432;2023-02-24T00:43:55;19.60;;;12.13;;
10050;SDS011;5065;46.942;7.432;2023-02-24T00:46:24;18.50;;;12.10;;
10050;SDS011;5065;46.942;7.432;2023-02-24T00:48:55;18.15;;;12.63;;
10050;SDS011;5065;46.942;7.432;2023-02-24T00:51:24;16.45;;;11.13;;
10050;SDS011;5065;46.942;7.432;2023-02-24T00:53:52;15.02;;;11.48;;
10050;SDS011;5065;46.942;7.432;2023-02-24T00:56:21;14.00;;;11.13;;
10050;SDS011;5065;46.942;7.432;2023-02-24T00:58:48;20.30;;;11.90;;
10050;SDS011;5065;46.942;7.432;2023-02-24T01:01:18;21.63;;;12.18;;
10050;SDS011;5065;46.942;7.432;2023-02-24T01:03:47;16.42;;;11.43;;
10050;SDS011;5065;46.942;7.432;2023-02-24T01:06:16;17.67;;;11.85;;
10050;SDS011;5065;46.942;7.432;2023-02-24T01:08:45;19.48;;;11.73;;
10050;SDS011;5065;46.942;7.432;2023-02-24T01:11:14;18.90;;;11.27;;
10050;SDS011;5065;46.942;7.432;2023-02-24T01:13:59;15.82;;;11.05;;
10050;SDS011;5065;46.942;7.432;2023-02-24T01:16:30;16.45;;;11.35;;
10050;SDS011;5065;46.942;7.432;2023-02-24T01:18:58;14.35;;;11.20;;
10050;SDS011;5065;46.942;7.432;2023-02-24T01:21:25;17.63;;;11.05;;
10050;SDS011;5065;46.942;7.432;2023-02-24T01:23:53;16.65;;;10.82;;
10050;SDS011;5065;46.942;7.432;2023-02-24T01:26:20;14.20;;;10.23;;
10050;SDS011;5065;46.942;7.432;2023-02-24T01:28:48;16.10;;;10.63;;
10050;SDS011;5065;46.942;7.432;2023-02-24T01:31:15;15.48;;;10.70;;
10050;SDS011;5065;46.942;7.432;2023-02-24T01:33:46;16.23;;;10.67;;
10050;SDS011;5065;46.942;7.432;2023-02-24T01:36:15;14.05;;;10.52;;
10050;SDS011;5065;46.942;7.432;2023-02-24T01:38:44;12.87;;;9.93;;
10050;SDS011;5065;46.942;7.432;2023-02-24T01:41:13;15.73;;;10.40;;
10050;SDS011;5065;46.942;7.432;2023-02-24T01:43:55;15.35;;;10.52;;
10050;SDS011;5065;46.942;7.432;2023-02-24T01:46:26;13.70;;;9.83;;
10050;SDS011;5065;46.942;7.432;2023-02-24T01:48:57;13.10;;;10.05;;
10050;SDS011;5065;46.942;7.432;2023-02-24T01:51:28;13.73;;;10.50;;
10050;SDS011;5065;46.942;7.432;2023-02-24T01:53:58;13.88;;;9.70;;
10050;SDS011;5065;46.942;7.432;2023-02-24T01:56:26;15.23;;;9.85;;
10050;SDS011;5065;46.942;7.432;2023-02-24T01:58:55;16.55;;;10.57;;
10050;SDS011;5065;46.942;7.432;2023-02-24T02:01:24;14.55;;;10.30;;
10050;SDS011;5065;46.942;7.432;2023-02-24T02:03:53;14.68;;;10.77;;
10050;SDS011;5065;46.942;7.432;2023-02-24T02:06:29;17.05;;;10.20;;
10050;SDS011;5065;46.942;7.432;2023-02-24T02:08:57;16.48;;;10.77;;
10050;SDS011;5065;46.942;7.432;2023-02-24T02:11:25;14.63;;;10.05;;
10050;SDS011;5065;46.942;7.432;2023-02-24T02:13:52;13.32;;;9.65;;
10050;SDS011;5065;46.942;7.432;2023-02-24T02:19:22;14.63;;;10.20;;
10050;SDS011;5065;46.942;7.432;2023-02-24T02:25:22;20.42;;;11.70;;
10050;SDS011;5065;46.942;7.432;2023-02-24T02:28:07;15.45;;;11.25;;
10050;SDS011;5065;46.942;7.432;2023-02-24T02:34:24;19.42;;;12.10;;
10050;SDS011;5065;46.942;7.432;2023-02-24T02:37:03;18.23;;;12.20;;
10050;SDS011;5065;46.942;7.432;2023-02-24T02:39:41;19.95;;;12.65;;
10050;SDS011;5065;46.942;7.432;2023-02-24T02:42:23;19.75;;;12.25;;
10050;SDS011;5065;46.942;7.432;2023-02-24T02:44:56;18.27;;;13.32;;
10050;SDS011;5065;46.942;7.432;2023-02-24T02:47:32;17.60;;;12.88;;
10050;SDS011;5065;46.942;7.432;2023-02-24T02:50:08;19.90;;;13.02;;
10050;SDS011;5065;46.942;7.432;2023-02-24T02:52:44;19.40;;;13.10;;
10050;SDS011;5065;46.942;7.432;2023-02-24T02:55:19;15.18;;;12.45;;
10050;SDS011;5065;46.942;7.432;2023-02-24T02:57:52;17.05;;;11.98;;
10050;SDS011;5065;46.942;7.432;2023-02-24T03:00:22;16.55;;;12.73;;
10050;SDS011;5065;46.942;7.432;2023-02-24T03:02:55;18.60;;;12.23;;
10050;SDS011;5065;46.942;7.432;2023-02-24T03:05:30;16.38;;;12.57;;
10050;SDS011;5065;46.942;7.432;2023-02-24T03:08:02;16.30;;;12.10;;
10050;SDS011;5065;46.942;7.432;2023-02-24T03:10:35;20.40;;;12.48;;
10050;SDS011;5065;46.942;7.432;2023-02-24T03:13:05;18.52;;;11.63;;
10050;SDS011;5065;46.942;7.432;2023-02-24T03:15:37;15.88;;;12.38;;
10050;SDS011;5065;46.942;7.432;2023-02-24T03:18:11;18.55;;;12.07;;
10050;SDS011;5065;46.942;7.432;2023-02-24T03:20:45;17.27;;;12.00;;
10050;SDS011;5065;46.942;7.432;2023-02-24T03:23:17;14.13;;;11.63;;
10050;SDS011;5065;46.942;7.432;2023-02-24T03:25:50;16.13;;;12.27;;
10050;SDS011;5065;46.942;7.432;2023-02-24T03:28:25;16.70;;;12.23;;
10050;SDS011;5065;46.942;7.432;2023-02-24T03:30:59;14.73;;;10.77;;
10050;SDS011;5065;46.942;7.432;2023-02-24T03:33:32;17.87;;;12.17;;
10050;SDS011;5065;46.942;7.432;2023-02-24T03:36:03;16.13;;;11.27;;
10050;SDS011;5065;46.942;7.432;2023-02-24T03:38:31;16.50;;;11.35;;
10050;SDS011;5065;46.942;7.432;2023-02-24T03:41:02;13.98;;;11.13;;
10050;SDS011;5065;46.942;7.432;2023-02-24T03:43:35;16.00;;;11.38;;
10050;SDS011;5065;46.942;7.432;2023-02-24T03:46:06;16.10;;;10.95;;
10050;SDS011;5065;46.942;7.432;2023-02-24T03:48:33;18.17;;;11.67;;
10050;SDS011;5065;46.942;7.432;2023-02-24T03:51:14;14.63;;;10.80;;
10050;SDS011;5065;46.942;7.432;2023-02-24T03:53:47;13.93;;;11.05;;
10050;SDS011;5065;46.942;7.432;2023-02-24T03:56:26;18.77;;;11.18;;
10050;SDS011;5065;46.942;7.432;2023-02-24T03:59:04;16.10;;;11.45;;
10050;SDS011;5065;46.942;7.432;2023-02-24T04:01:41;16.05;;;11.70;;
10050;SDS011;5065;46.942;7.432;2023-02-24T04:04:17;16.45;;;11.52;;
10050;SDS011;5065;46.942;7.432;2023-02-24T04:06:53;16.23;;;12.45;;
10050;SDS011;5065;46.942;7.432;2023-02-24T04:09:26;18.42;;;12.10;;
10050;SDS011;5065;46.942;7.432;2023-02-24T04:12:01;15.40;;;12.13;;
10050;SDS011;5065;46.942;7.432;2023-02-24T04:14:37;17.55;;;12.18;;
10050;SDS011;5065;46.942;7.432;2023-02-24T04:17:09;14.40;;;12.35;;
10050;SDS011;5065;46.942;7.432;2023-02-24T04:19:43;17.42;;;12.05;;
10050;SDS011;5065;46.942;7.432;2023-02-24T04:22:15;14.38;;;11.80;;
10050;SDS011;5065;46.942;7.432;2023-02-24T04:24:49;16.20;;;11.50;;
10050;SDS011;5065;46.942;7.432;2023-02-24T04:27:19;18.30;;;12.18;;
10050;SDS011;5065;46.942;7.432;2023-02-24T04:29:49;17.05;;;11.40;;
10050;SDS011;5065;46.942;7.432;2023-02-24T04:32:19;17.15;;;11.15;;
10050;SDS011;5065;46.942;7.432;2023-02-24T04:34:49;16.95;;;11.05;;
10050;SDS011;5065;46.942;7.432;2023-02-24T04:37:18;17.83;;;10.63;;
10050;SDS011;5065;46.942;7.432;2023-02-24T04:39:47;14.40;;;10.73;;
10050;SDS011;5065;46.942;7.432;2023-02-24T04:42:15;15.38;;;10.95;;
10050;SDS011;5065;46.942;7.432;2023-02-24T04:44:46;15.63;;;11.18;;
10050;SDS011;5065;46.942;7.432;2023-02-24T04:47:13;19.70;;;10.18;;
10050;SDS011;5065;46.942;7.432;2023-02-24T04:49:40;16.30;;;10.27;;
10050;SDS011;5065;46.942;7.432;2023-02-24T04:52:08;14.37;;;10.23;;
10050;SDS011;5065;46.942;7.432;2023-02-24T04:54:37;15.10;;;11.63;;
10050;SDS011;5065;46.942;7.432;2023-02-24T04:57:04;15.80;;;11.10;;
10050;SDS011;5065;46.942;7.432;2023-02-24T04:59:32;16.83;;;8.67;;
10050;SDS011;5065;46.942;7.432;2023-02-24T05:01:59;13.37;;;9.53;;
10050;SDS011;5065;46.942;7.432;2023-02-24T05:04:26;15.77;;;8.33;;
10050;SDS011;5065;46.942;7.432;2023-02-24T05:06:55;16.87;;;8.87;;
10050;SDS011;5065;46.942;7.432;2023-02-24T05:09:23;12.57;;;8.53;;
10050;SDS011;5065;46.942;7.432;2023-02-24T05:11:55;14.90;;;8.23;;
10050;SDS011;5065;46.942;7.432;2023-02-24T05:14:24;12.07;;;8.57;;
10050;SDS011;5065;46.942;7.432;2023-02-24T05:16:51;16.17;;;8.67;;
10050;SDS011;5065;46.942;7.432;2023-02-24T05:19:24;14.43;;;8.67;;
10050;SDS011;5065;46.942;7.432;2023-02-24T05:22:09;13.23;;;8.17;;
10050;SDS011;5065;46.942;7.432;2023-02-24T05:24:38;10.17;;;8.30;;
10050;SDS011;5065;46.942;7.432;2023-02-24T05:27:07;13.27;;;8.23;;
10050;SDS011;5065;46.942;7.432;2023-02-24T05:29:36;10.80;;;7.87;;
10050;SDS011;5065;46.942;7.432;2023-02-24T05:32:04;11.70;;;8.67;;
10050;SDS011;5065;46.942;7.432;2023-02-24T05:34:32;11.47;;;8.10;;
10050;SDS011;5065;46.942;7.432;2023-02-24T05:37:00;14.30;;;8.67;;
10050;SDS011;5065;46.942;7.432;2023-02-24T05:39:34;11.87;;;8.07;;
10050;SDS011;5065;46.942;7.432;2023-02-24T05:42:02;14.27;;;8.63;;
10050;SDS011;5065;46.942;7.432;2023-02-24T05:44:32;11.80;;;8.30;;
10050;SDS011;5065;46.942;7.432;2023-02-24T05:47:00;14.00;;;7.97;;
10050;SDS011;5065;46.942;7.432;2023-02-24T05:49:30;14.93;;;8.40;;
10050;SDS011;5065;46.942;7.432;2023-02-24T05:52:00;11.30;;;7.50;;
10050;SDS011;5065;46.942;7.432;2023-02-24T05:54:33;16.90;;;8.17;;
10050;SDS011;5065;46.942;7.432;2023-02-24T05:57:03;12.60;;;7.43;;
10050;SDS011;5065;46.942;7.432;2023-02-24T05:59:34;12.13;;;7.10;;
10050;SDS011;5065;46.942;7.432;2023-02-24T06:02:02;10.93;;;7.90;;
10050;SDS011;5065;46.942;7.432;2023-02-24T06:04:31;11.57;;;8.10;;
10050;SDS011;5065;46.942;7.432;2023-02-24T06:07:16;16.63;;;7.37;;
10050;SDS011;5065;46.942;7.432;2023-02-24T06:09:45;12.63;;;7.60;;
10050;SDS011;5065;46.942;7.432;2023-02-24T06:12:15;11.07;;;7.80;;
10050;SDS011;5065;46.942;7.432;2023-02-24T06:14:44;12.93;;;7.70;;
10050;SDS011;5065;46.942;7.432;2023-02-24T06:17:12;17.47;;;8.67;;
10050;SDS011;5065;46.942;7.432;2023-02-24T06:19:41;16.00;;;8.37;;
10050;SDS011;5065;46.942;7.432;2023-02-24T06:22:10;14.63;;;8.77;;
10050;SDS011;5065;46.942;7.432;2023-02-24T06:24:39;11.77;;;8.13;;
10050;SDS011;5065;46.942;7.432;2023-02-24T06:27:08;18.13;;;8.13;;
10050;SDS011;5065;46.942;7.432;2023-02-24T06:29:42;13.73;;;8.87;;
10050;SDS011;5065;46.942;7.432;2023-02-24T06:32:11;10.00;;;7.17;;
10050;SDS011;5065;46.942;7.432;2023-02-24T06:34:38;13.20;;;7.43;;
10050;SDS011;5065;46.942;7.432;2023-02-24T06:37:06;13.97;;;7.53;;
10050;SDS011;5065;46.942;7.432;2023-02-24T06:39:36;14.73;;;8.67;;
10050;SDS011;5065;46.942;7.432;2023-02-24T06:42:03;11.57;;;7.93;;
10050;SDS011;5065;46.942;7.432;2023-02-24T06:44:33;10.53;;;7.43;;
10050;SDS011;5065;46.942;7.432;2023-02-24T06:47:02;10.47;;;7.70;;
10050;SDS011;5065;46.942;7.432;2023-02-24T06:49:32;13.17;;;7.80;;
10050;SDS011;5065;46.942;7.432;2023-02-24T06:51:59;10.30;;;7.43;;
10050;SDS011;5065;46.942;7.432;2023-02-24T06:54:27;10.50;;;7.17;;
10050;SDS011;5065;46.942;7.432;2023-02-24T06:56:54;12.73;;;6.73;;
10050;SDS011;5065;46.942;7.432;2023-02-24T06:59:22;11.87;;;7.47;;
10050;SDS011;5065;46.942;7.432;2023-02-24T07:01:53;13.00;;;7.77;;
10050;SDS011;5065;46.942;7.432;2023-02-24T07:04:20;11.83;;;7.53;;
10050;SDS011;5065;46.942;7.432;2023-02-24T07:06:51;12.53;;;7.27;;
10050;SDS011;5065;46.942;7.432;2023-02-24T07:09:21;10.30;;;7.17;;
10050;SDS011;5065;46.942;7.432;2023-02-24T07:11:51;18.00;;;9.47;;
10050;SDS011;5065;46.942;7.432;2023-02-24T07:14:22;12.60;;;6.90;;
10050;SDS011;5065;46.942;7.432;2023-02-24T07:16:50;11.87;;;7.07;;
10050;SDS011;5065;46.942;7.432;2023-02-24T07:19:19;18.40;;;7.73;;
10050;SDS011;5065;46.942;7.432;2023-02-24T07:21:47;12.07;;;6.97;;
10050;SDS011;5065;46.942;7.432;2023-02-24T07:24:18;13.13;;;7.17;;
10050;SDS011;5065;46.942;7.432;2023-02-24T07:26:57;12.07;;;6.90;;
10050;SDS011;5065;46.942;7.432;2023-02-24T07:29:26;16.40;;;8.00;;
10050;SDS011;5065;46.942;7.432;2023-02-24T07:31:56;8.13;;;7.03;;
10050;SDS011;5065;46.942;7.432;2023-02-24T07:34:25;13.10;;;7.53;;
10050;SDS011;5065;46.942;7.432;2023-02-24T07:36:53;12.20;;;7.37;;
10050;SDS011;5065;46.942;7.432;2023-02-24T07:39:22;9.83;;;7.33;;
10050;SDS011;5065;46.942;7.432;2023-02-24T07:41:50;12.00;;;7.70;;
10050;SDS011;5065;46.942;7.432;2023-02-24T07:44:19;13.97;;;7.50;;
10050;SDS011;5065;46.942;7.432;2023-02-24T07:46:48;15.50;;;8.90;;
10050;SDS011;5065;46.942;7.432;2023-02-24T07:49:16;11.83;;;7.23;;
10050;SDS011;5065;46.942;7.432;2023-02-24T07:51:45;10.53;;;6.97;;
10050;SDS011;5065;46.942;7.432;2023-02-24T07:54:16;18.10;;;11.57;;
10050;SDS011;5065;46.942;7.432;2023-02-24T07:56:46;12.33;;;7.20;;
10050;SDS011;5065;46.942;7.432;2023-02-24T07:59:20;13.47;;;7.80;;
10050;SDS011;5065;46.942;7.432;2023-02-24T08:01:49;20.33;;;8.87;;
10050;SDS011;5065;46.942;7.432;2023-02-24T08:04:20;18.73;;;12.70;;
10050;SDS011;5065;46.942;7.432;2023-02-24T08:06:49;10.07;;;6.60;;
10050;SDS011;5065;46.942;7.432;2023-02-24T08:09:21;15.40;;;6.83;;
10050;SDS011;5065;46.942;7.432;2023-02-24T08:12:13;10.17;;;5.97;;
10050;SDS011;5065;46.942;7.432;2023-02-24T08:14:42;14.53;;;8.33;;
10050;SDS011;5065;46.942;7.432;2023-02-24T08:17:14;14.67;;;8.40;;
10050;SDS011;5065;46.942;7.432;2023-02-24T08:19:45;9.77;;;7.03;;
10050;SDS011;5065;46.942;7.432;2023-02-24T08:22:13;13.77;;;7.17;;
10050;SDS011;5065;46.942;7.432;2023-02-24T08:24:49;16.13;;;7.17;;
10050;SDS011;5065;46.942;7.432;2023-02-24T08:27:22;13.83;;;6.50;;
10050;SDS011;5065;46.942;7.432;2023-02-24T08:29:51;14.13;;;6.60;;
10050;SDS011;5065;46.942;7.432;2023-02-24T08:32:27;10.83;;;6.90;;
10050;SDS011;5065;46.942;7.432;2023-02-24T08:34:58;16.13;;;7.77;;
10050;SDS011;5065;46.942;7.432;2023-02-24T08:37:27;16.00;;;7.17;;
10050;SDS011;5065;46.942;7.432;2023-02-24T08:40:05;12.77;;;6.57;;
10050;SDS011;5065;46.942;7.432;2023-02-24T08:42:54;12.07;;;6.53;;
10050;SDS011;5065;46.942;7.432;2023-02-24T08:45:23;12.43;;;6.87;;
10050;SDS011;5065;46.942;7.432;2023-02-24T08:47:53;10.03;;;6.57;;
10050;SDS011;5065;46.942;7.432;2023-02-24T08:50:25;10.63;;;6.80;;
10050;SDS011;5065;46.942;7.432;2023-02-24T08:52:55;9.77;;;5.50;;
10050;SDS011;5065;46.942;7.432;2023-02-24T08:55:25;11.47;;;5.90;;
10050;SDS011;5065;46.942;7.432;2023-02-24T08:57:58;9.60;;;5.83;;
10050;SDS011;5065;46.942;7.432;2023-02-24T09:00:26;8.23;;;6.43;;
10050;SDS011;5065;46.942;7.432;2023-02-24T09:03:13;12.77;;;6.77;;
10050;SDS011;5065;46.942;7.432;2023-02-24T09:05:55;10.53;;;6.87;;
10050;SDS011;5065;46.942;7.432;2023-02-24T09:08:29;15.80;;;6.30;;
10050;SDS011;5065;46.942;7.432;2023-02-24T09:11:03;10.93;;;7.03;;
10050;SDS011;5065;46.942;7.432;2023-02-24T09:13:35;14.47;;;7.90;;
10050;SDS011;5065;46.942;7.432;2023-02-24T09:16:07;15.17;;;6.87;;
10050;SDS011;5065;46.942;7.432;2023-02-24T09:18:40;10.23;;;6.70;;
10050;SDS011;5065;46.942;7.432;2023-02-24T09:21:08;14.83;;;7.60;;
10050;SDS011;5065;46.942;7.432;2023-02-24T09:23:57;14.80;;;9.00;;
10050;SDS011;5065;46.942;7.432;2023-02-24T09:26:27;15.50;;;8.17;;
10050;SDS011;5065;46.942;7.432;2023-02-24T09:28:58;12.87;;;6.37;;
10050;SDS011;5065;46.942;7.432;2023-02-24T09:31:45;11.77;;;6.93;;
10050;SDS011;5065;46.942;7.432;2023-02-24T09:34:19;14.57;;;6.60;;
10050;SDS011;5065;46.942;7.432;2023-02-24T09:36:54;16.27;;;6.57;;
10050;SDS011;5065;46.942;7.432;2023-02-24T09:39:27;11.30;;;6.67;;
10050;SDS011;5065;46.942;7.432;2023-02-24T09:42:15;15.57;;;7.60;;
10050;SDS011;5065;46.942;7.432;2023-02-24T09:45:00;10.80;;;6.50;;
10050;SDS011;5065;46.942;7.432;2023-02-24T09:47:36;11.30;;;7.50;;
10050;SDS011;5065;46.942;7.432;2023-02-24T09:50:23;12.37;;;5.90;;
10050;SDS011;5065;46.942;7.432;2023-02-24T09:53:11;13.63;;;7.50;;
10050;SDS011;5065;46.942;7.432;2023-02-24T09:55:43;9.93;;;6.63;;
10050;SDS011;5065;46.942;7.432;2023-02-24T09:58:30;9.37;;;5.93;;
10050;SDS011;5065;46.942;7.432;2023-02-24T10:01:26;15.37;;;6.67;;
10050;SDS011;5065;46.942;7.432;2023-02-24T10:04:00;12.77;;;6.73;;
10050;SDS011;5065;46.942;7.432;2023-02-24T10:06:43;13.80;;;6.37;;
10050;SDS011;5065;46.942;7.432;2023-02-24T10:09:16;11.47;;;7.07;;
10050;SDS011;5065;46.942;7.432;2023-02-24T10:11:49;17.57;;;8.17;;
10050;SDS011;5065;46.942;7.432;2023-02-24T10:14:21;14.17;;;7.47;;
10050;SDS011;5065;46.942;7.432;2023-02-24T10:16:54;11.87;;;7.10;;
10050;SDS011;5065;46.942;7.432;2023-02-24T10:19:40;9.57;;;6.70;;
10050;SDS011;5065;46.942;7.432;2023-02-24T10:22:10;13.00;;;6.87;;
10050;SDS011;5065;46.942;7.432;2023-02-24T10:24:53;13.43;;;6.83;;
10050;SDS011;5065;46.942;7.432;2023-02-24T10:27:46;8.50;;;6.00;;
10050;SDS011;5065;46.942;7.432;2023-02-24T10:30:34;13.53;;;6.90;;
10050;SDS011;5065;46.942;7.432;2023-02-24T10:33:12;14.20;;;6.50;;
10050;SDS011;5065;46.942;7.432;2023-02-24T10:35:49;10.47;;;7.00;;
10050;SDS011;5065;46.942;7.432;2023-02-24T10:38:19;10.93;;;6.47;;
10050;SDS011;5065;46.942;7.432;2023-02-24T10:40:47;18.37;;;11.33;;
10050;SDS011;5065;46.942;7.432;2023-02-24T10:43:21;15.10;;;7.00;;
10050;SDS011;5065;46.942;7.432;2023-02-24T10:45:56;10.90;;;6.60;;
10050;SDS011;5065;46.942;7.432;2023-02-24T10:48:32;11.07;;;6.53;;
10050;SDS011;5065;46.942;7.432;2023-02-24T10:51:08;14.30;;;6.20;;
10050;SDS011;5065;46.942;7.432;2023-02-24T10:53:45;15.77;;;6.47;;
10050;SDS011;5065;46.942;7.432;2023-02-24T10:56:34;10.73;;;5.73;;
10050;SDS011;5065;46.942;7.432;2023-02-24T10:59:19;10.40;;;6.93;;
10050;SDS011;5065;46.942;7.432;2023-02-24T11:02:01;11.80;;;7.77;;
10050;SDS011;5065;46.942;7.432;2023-02-24T11:04:52;19.30;;;6.20;;
10050;SDS011;5065;46.942;7.432;2023-02-24T11:07:41;10.73;;;6.10;;
10050;SDS011;5065;46.942;7.432;2023-02-24T11:10:18;18.10;;;5.97;;
10050;SDS011;5065;46.942;7.432;2023-02-24T11:12:56;17.20;;;6.23;;
10050;SDS011;5065;46.942;7.432;2023-02-24T11:15:44;11.90;;;5.97;;
10050;SDS011;5065;46.942;7.432;2023-02-24T11:18:32;20.23;;;6.87;;
10050;SDS011;5065;46.942;7.432;2023-02-24T11:21:02;17.90;;;5.47;;
10050;SDS011;5065;46.942;7.432;2023-02-24T11:23:32;17.70;;;5.40;;
10050;SDS011;5065;46.942;7.432;2023-02-24T11:26:02;26.33;;;6.37;;
10050;SDS011;5065;46.942;7.432;2023-02-24T11:28:39;13.60;;;5.80;;
10050;SDS011;5065;46.942;7.432;2023-02-24T11:31:28;18.07;;;6.50;;
10050;SDS011;5065;46.942;7.432;2023-02-24T11:34:08;22.10;;;6.93;;
10050;SDS011;5065;46.942;7.432;2023-02-24T11:36:45;24.70;;;13.90;;
10050;SDS011;5065;46.942;7.432;2023-02-24T11:39:30;14.90;;;6.80;;
10050;SDS011;5065;46.942;7.432;2023-02-24T11:42:13;20.70;;;7.40;;
10050;SDS011;5065;46.942;7.432;2023-02-24T11:44:49;13.07;;;6.47;;
10050;SDS011;5065;46.942;7.432;2023-02-24T11:47:21;12.63;;;5.77;;
10050;SDS011;5065;46.942;7.432;2023-02-24T11:49:54;15.67;;;6.40;;
10050;SDS011;5065;46.942;7.432;2023-02-24T11:52:31;13.23;;;6.33;;
10050;SDS011;5065;46.942;7.432;2023-02-24T11:55:04;19.07;;;6.67;;
10050;SDS011;5065;46.942;7.432;2023-02-24T11:57:40;16.00;;;6.07;;
10050;SDS011;5065;46.942;7.432;2023-02-24T12:00:13;16.90;;;6.30;;
10050;SDS011;5065;46.942;7.432;2023-02-24T12:02:45;18.33;;;6.33;;
10050;SDS011;5065;46.942;7.432;2023-02-24T12:05:18;15.70;;;6.53;;
10050;SDS011;5065;46.942;7.432;2023-02-24T12:07:51;13.93;;;5.77;;
10050;SDS011;5065;46.942;7.432;2023-02-24T12:10:22;18.60;;;6.17;;
10050;SDS011;5065;46.942;7.432;2023-02-24T12:12:55;16.27;;;6.63;;
10050;SDS011;5065;46.942;7.432;2023-02-24T12:15:28;20.10;;;5.97;;
10050;SDS011;5065;46.942;7.432;2023-02-24T12:18:01;12.70;;;6.10;;
10050;SDS011;5065;46.942;7.432;2023-02-24T12:20:39;16.23;;;5.37;;
10050;SDS011;5065;46.942;7.432;2023-02-24T12:23:13;20.77;;;5.40;;
10050;SDS011;5065;46.942;7.432;2023-02-24T12:25:48;14.97;;;5.30;;
10050;SDS011;5065;46.942;7.432;2023-02-24T12:28:27;13.87;;;5.80;;
10050;SDS011;5065;46.942;7.432;2023-02-24T12:31:06;10.20;;;5.10;;
10050;SDS011;5065;46.942;7.432;2023-02-24T12:33:48;39.03;;;25.87;;
10050;SDS011;5065;46.942;7.432;2023-02-24T12:36:34;21.33;;;7.67;;
10050;SDS011;5065;46.942;7.432;2023-02-24T12:39:13;25.47;;;6.47;;
10050;SDS011;5065;46.942;7.432;2023-02-24T12:41:46;24.07;;;9.13;;
10050;SDS011;5065;46.942;7.432;2023-02-24T12:44:34;18.03;;;6.17;;
10050;SDS011;5065;46.942;7.432;2023-02-24T12:47:08;11.97;;;5.30;;
10050;SDS011;5065;46.942;7.432;2023-02-24T12:49:51;23.90;;;5.43;;
10050;SDS011;5065;46.942;7.432;2023-02-24T12:52:35;14.53;;;5.47;;
10050;SDS011;5065;46.942;7.432;2023-02-24T12:55:15;15.10;;;5.50;;
10050;SDS011;5065;46.942;7.432;2023-02-24T12:57:50;22.90;;;6.60;;
10050;SDS011;5065;46.942;7.432;2023-02-24T13:00:28;17.40;;;5.20;;
10050;SDS011;5065;46.942;7.432;2023-02-24T13:03:05;11.47;;;5.20;;
10050;SDS011;5065;46.942;7.432;2023-02-24T13:05:49;12.73;;;6.00;;
10050;SDS011;5065;46.942;7.432;2023-02-24T13:08:23;12.83;;;5.73;;
10050;SDS011;5065;46.942;7.432;2023-02-24T13:11:04;22.03;;;6.87;;
10050;SDS011;5065;46.942;7.432;2023-02-24T13:13:39;12.27;;;5.43;;
10050;SDS011;5065;46.942;7.432;2023-02-24T13:16:12;15.47;;;6.03;;
10050;SDS011;5065;46.942;7.432;2023-02-24T13:18:40;17.50;;;6.47;;
10050;SDS011;5065;46.942;7.432;2023-02-24T13:21:08;18.00;;;6.77;;
10050;SDS011;5065;46.942;7.432;2023-02-24T13:23:52;17.70;;;6.33;;
10050;SDS011;5065;46.942;7.432;2023-02-24T13:26:22;16.87;;;6.30;;
10050;SDS011;5065;46.942;7.432;2023-02-24T13:28:56;24.70;;;6.50;;
10050;SDS011;5065;46.942;7.432;2023-02-24T13:31:26;23.10;;;8.13;;
10050;SDS011;5065;46.942;7.432;2023-02-24T13:34:11;22.27;;;7.80;;
10050;SDS011;5065;46.942;7.432;2023-02-24T13:36:44;14.50;;;5.67;;
10050;SDS011;5065;46.942;7.432;2023-02-24T13:39:20;18.70;;;6.17;;
10050;SDS011;5065;46.942;7.432;2023-02-24T13:42:01;14.73;;;5.73;;
10050;SDS011;5065;46.942;7.432;2023-02-24T13:44:30;18.80;;;4.70;;
10050;SDS011;5065;46.942;7.432;2023-02-24T13:47:04;16.23;;;5.30;;
10050;SDS011;5065;46.942;7.432;2023-02-24T13:49:53;14.60;;;5.30;;
10050;SDS011;5065;46.942;7.432;2023-02-24T13:52:36;16.20;;;5.33;;
10050;SDS011;5065;46.942;7.432;2023-02-24T13:55:27;16.60;;;5.20;;
10050;SDS011;5065;46.942;7.432;2023-02-24T13:58:19;14.90;;;5.03;;
10050;SDS011;5065;46.942;7.432;2023-02-24T14:01:06;20.27;;;4.77;;
10050;SDS011;5065;46.942;7.432;2023-02-24T14:03:35;15.73;;;5.27;;
10050;SDS011;5065;46.942;7.432;2023-02-24T14:06:12;15.17;;;5.73;;
10050;SDS011;5065;46.942;7.432;2023-02-24T14:08:44;23.60;;;5.53;;
10050;SDS011;5065;46.942;7.432;2023-02-24T14:11:18;18.20;;;5.87;;
10050;SDS011;5065;46.942;7.432;2023-02-24T14:13:52;12.63;;;5.53;;
10050;SDS011;5065;46.942;7.432;2023-02-24T14:16:21;16.50;;;6.53;;
10050;SDS011;5065;46.942;7.432;2023-02-24T14:18:53;14.67;;;5.67;;
10050;SDS011;5065;46.942;7.432;2023-02-24T14:21:21;17.93;;;6.40;;
10050;SDS011;5065;46.942;7.432;2023-02-24T14:23:54;20.17;;;6.90;;
10050;SDS011;5065;46.942;7.432;2023-02-24T14:26:22;15.37;;;8.10;;
10050;SDS011;5065;46.942;7.432;2023-02-24T14:28:54;23.10;;;7.00;;
10050;SDS011;5065;46.942;7.432;2023-02-24T14:31:24;29.70;;;7.40;;
10050;SDS011;5065;46.942;7.432;2023-02-24T14:33:55;19.27;;;6.83;;
10050;SDS011;5065;46.942;7.432;2023-02-24T14:36:25;22.33;;;6.53;;
10050;SDS011;5065;46.942;7.432;2023-02-24T14:39:05;17.10;;;7.37;;
10050;SDS011;5065;46.942;7.432;2023-02-24T14:41:34;17.70;;;7.43;;
10050;SDS011;5065;46.942;7.432;2023-02-24T14:44:13;16.20;;;6.57;;
10050;SDS011;5065;46.942;7.432;2023-02-24T14:46:45;18.93;;;6.63;;
10050;SDS011;5065;46.942;7.432;2023-02-24T14:49:16;14.47;;;6.03;;
10050;SDS011;5065;46.942;7.432;2023-02-24T14:51:49;18.13;;;6.07;;
10050;SDS011;5065;46.942;7.432;2023-02-24T14:54:32;17.70;;;6.10;;
10050;SDS011;5065;46.942;7.432;2023-02-24T14:57:10;17.03;;;5.93;;
10050;SDS011;5065;46.942;7.432;2023-02-24T14:59:41;21.97;;;6.30;;
10050;SDS011;5065;46.942;7.432;2023-02-24T15:02:12;17.17;;;7.60;;
10050;SDS011;5065;46.942;7.432;2023-02-24T15:04:42;20.07;;;6.63;;
10050;SDS011;5065;46.942;7.432;2023-02-24T15:07:14;13.33;;;6.63;;
10050;SDS011;5065;46.942;7.432;2023-02-24T15:09:43;14.53;;;7.03;;
10050;SDS011;5065;46.942;7.432;2023-02-24T15:12:18;14.63;;;6.87;;
10050;SDS011;5065;46.942;7.432;2023-02-24T15:14:51;12.80;;;6.57;;
10050;SDS011;5065;46.942;7.432;2023-02-24T15:17:21;17.60;;;7.33;;
10050;SDS011;5065;46.942;7.432;2023-02-24T15:19:50;26.60;;;7.80;;
10050;SDS011;5065;46.942;7.432;2023-02-24T15:22:20;16.37;;;6.57;;
10050;SDS011;5065;46.942;7.432;2023-02-24T15:24:50;13.60;;;6.17;;
10050;SDS011;5065;46.942;7.432;2023-02-24T15:27:19;19.20;;;6.47;;
10050;SDS011;5065;46.942;7.432;2023-02-24T15:29:56;20.57;;;7.13;;